Time;durP1;ratioP1;P1;durP2;ratioP2;P2;SDS_P1;SDS_P2;PMS_P1;PMS_P2;Temp;Humidity;BMP_temperature;BMP_pressure;BME280_temperature;BME280_humidity;BME280_pressure;Samples;Min_cycle;Max_cycle;Signal;HPM_P1;HPM_P2
2022/04/08 00:01:52;;;;;;;;;5.00;2.50;;;;;;;;5119907;28;11422;-74
2022/04/08 00:04:17;;;;;;;;;2.00;1.50;;;;;;;;5119162;28;11527;-75
2022/04/08 00:06:42;;;;;;;;;1.25;1.00;;;;;;;;5119621;28;8769;-75
2022/04/08 00:09:07;;;;;;;;;1.00;1.00;;;;;;;;5119672;28;12533;-76
2022/04/08 00:11:33;;;;;;;;;1.75;1.00;;;;;;;;5119778;28;8792;-77
2022/04/08 00:14:00;;;;;;;;;1.00;1.00;;;;;;;;5119689;28;8780;-77
2022/04/08 00:16:25;;;;;;;;;3.50;2.00;;;;;;;;5119670;28;8761;-75
2022/04/08 00:18:51;;;;;;;;;8.75;2.50;;;;;;;;5119553;28;11402;-75
2022/04/08 00:21:16;;;;;;;;;6.00;3.00;;;;;;;;5119299;28;11366;-77
2022/04/08 00:23:42;;;;;;;;;3.25;2.25;;;;;;;;5118482;28;11300;-76
2022/04/08 00:26:07;;;;;;;;;4.50;2.00;;;;;;;;5100277;28;13516;-76
2022/04/08 00:28:33;;;;;;;;;1.25;1.00;;;;;;;;5119143;28;11290;-75
2022/04/08 00:30:58;;;;;;;;;1.50;1.50;;;;;;;;5100509;28;12380;-77
2022/04/08 00:33:23;;;;;;;;;10.00;1.00;;;;;;;;5119143;28;8818;-77
2022/04/08 00:35:48;;;;;;;;;2.75;2.00;;;;;;;;5118912;28;21381;-76
2022/04/08 00:38:14;;;;;;;;;1.50;1.00;;;;;;;;5119364;28;22581;-76
2022/04/08 00:40:39;;;;;;;;;5.50;3.50;;;;;;;;5119750;28;10459;-76
2022/04/08 00:43:14;;;;;;;;;2.00;1.00;;;;;;;;5119637;28;11280;-76
2022/04/08 00:45:40;;;;;;;;;2.00;1.25;;;;;;;;5119224;28;11620;-77
2022/04/08 00:48:07;;;;;;;;;4.25;2.00;;;;;;;;5119372;28;11550;-75
2022/04/08 00:50:33;;;;;;;;;5.25;1.00;;;;;;;;5118708;28;11744;-76
2022/04/08 00:52:58;;;;;;;;;5.25;1.25;;;;;;;;5119370;28;11419;-75
2022/04/08 00:55:24;;;;;;;;;3.50;0.00;;;;;;;;5119713;28;8760;-76
2022/04/08 00:57:50;;;;;;;;;1.00;1.00;;;;;;;;5100533;28;13579;-76
2022/04/08 01:00:15;;;;;;;;;3.25;1.25;;;;;;;;5099945;28;12318;-75
2022/04/08 01:02:40;;;;;;;;;2.00;1.00;;;;;;;;5119050;28;11350;-77
2022/04/08 01:05:06;;;;;;;;;2.50;2.00;;;;;;;;5119146;28;11294;-75
2022/04/08 01:07:32;;;;;;;;;3.50;1.25;;;;;;;;5118634;28;9813;-74
2022/04/08 01:09:57;;;;;;;;;1.75;1.75;;;;;;;;5119920;28;11292;-74
2022/04/08 01:12:23;;;;;;;;;1.75;1.00;;;;;;;;5122296;28;10269;-75
2022/04/08 01:14:55;;;;;;;;;1.00;1.00;;;;;;;;5122849;28;8788;-75
2022/04/08 01:17:20;;;;;;;;;4.00;1.50;;;;;;;;5103791;28;9522;-76
2022/04/08 01:19:45;;;;;;;;;2.75;2.00;;;;;;;;5122410;28;11436;-76
2022/04/08 01:22:11;;;;;;;;;2.00;2.00;;;;;;;;5121999;28;11333;-76
2022/04/08 01:24:37;;;;;;;;;6.00;2.75;;;;;;;;5122053;28;8818;-76
2022/04/08 01:27:03;;;;;;;;;1.75;1.75;;;;;;;;5122699;28;11433;-75
2022/04/08 01:29:28;;;;;;;;;5.50;1.00;;;;;;;;5122354;28;11529;-76
2022/04/08 01:31:54;;;;;;;;;2.00;1.50;;;;;;;;5122318;28;11474;-75
2022/04/08 01:34:19;;;;;;;;;2.25;1.50;;;;;;;;5122277;28;11280;-75
2022/04/08 01:36:44;;;;;;;;;2.00;2.00;;;;;;;;5103796;28;8811;-75
2022/04/08 01:39:10;;;;;;;;;5.50;2.00;;;;;;;;5122101;28;10456;-77
2022/04/08 01:41:35;;;;;;;;;5.25;2.00;;;;;;;;5122208;28;9036;-76
2022/04/08 01:44:00;;;;;;;;;5.00;2.50;;;;;;;;5122067;28;8788;-77
2022/04/08 01:46:25;;;;;;;;;3.75;2.50;;;;;;;;5103169;28;10659;-76
2022/04/08 01:48:54;;;;;;;;;1.75;1.00;;;;;;;;5121699;28;9524;-76
2022/04/08 01:51:20;;;;;;;;;2.50;1.50;;;;;;;;5103083;28;13424;-76
2022/04/08 01:53:45;;;;;;;;;0.75;0.75;;;;;;;;5121190;28;11551;-76
2022/04/08 01:56:11;;;;;;;;;5.50;2.00;;;;;;;;5121277;28;11301;-75
2022/04/08 01:58:36;;;;;;;;;1.50;1.00;;;;;;;;5121094;28;11302;-76
2022/04/08 02:01:02;;;;;;;;;2.75;2.75;;;;;;;;5121334;28;8819;-76
2022/04/08 02:03:27;;;;;;;;;2.00;2.00;;;;;;;;5121811;28;11713;-76
2022/04/08 02:05:53;;;;;;;;;2.00;2.00;;;;;;;;5122048;28;8781;-76
2022/04/08 02:08:18;;;;;;;;;2.00;2.00;;;;;;;;5121890;28;8780;-75
2022/04/08 02:10:43;;;;;;;;;2.00;2.00;;;;;;;;5121672;28;8787;-75
2022/04/08 02:13:08;;;;;;;;;2.25;1.25;;;;;;;;5121671;28;9547;-76
2022/04/08 02:15:34;;;;;;;;;4.50;2.00;;;;;;;;5102662;28;12491;-76
2022/04/08 02:18:03;;;;;;;;;5.50;3.00;;;;;;;;5121171;28;11314;-77
2022/04/08 02:20:29;;;;;;;;;2.75;2.75;;;;;;;;5121605;27;9210;-76
2022/04/08 02:22:54;;;;;;;;;4.50;2.50;;;;;;;;5120700;28;11517;-75
2022/04/08 02:25:19;;;;;;;;;3.00;3.00;;;;;;;;5121000;28;11456;-75
2022/04/08 02:27:45;;;;;;;;;6.00;4.00;;;;;;;;5102224;28;13807;-76
2022/04/08 02:30:12;;;;;;;;;2.75;2.75;;;;;;;;5120687;28;8877;-78
2022/04/08 02:32:37;;;;;;;;;3.50;3.50;;;;;;;;5121034;28;11661;-77
2022/04/08 02:35:03;;;;;;;;;5.00;2.00;;;;;;;;5121510;28;11407;-75
2022/04/08 02:37:28;;;;;;;;;2.75;2.00;;;;;;;;5121226;28;11355;-76
2022/04/08 02:39:53;;;;;;;;;6.25;2.75;;;;;;;;5121541;28;8820;-77
2022/04/08 02:42:19;;;;;;;;;5.50;2.00;;;;;;;;5120963;28;11761;-76
2022/04/08 02:44:44;;;;;;;;;4.00;2.00;;;;;;;;5120498;28;11371;-75
2022/04/08 02:47:10;;;;;;;;;6.00;4.00;;;;;;;;5120656;28;9430;-77
2022/04/08 02:49:35;;;;;;;;;5.25;2.25;;;;;;;;5120116;28;9900;-76
2022/04/08 02:52:00;;;;;;;;;6.75;5.00;;;;;;;;5101870;28;13338;-76
2022/04/08 02:54:26;;;;;;;;;4.00;2.25;;;;;;;;5120103;28;11300;-76
2022/04/08 02:56:51;;;;;;;;;4.00;2.00;;;;;;;;5102522;28;11612;-76
2022/04/08 02:59:17;;;;;;;;;5.50;5.00;;;;;;;;5121133;28;8792;-75
2022/04/08 03:01:42;;;;;;;;;5.00;2.50;;;;;;;;5120698;28;10502;-77
2022/04/08 03:04:08;;;;;;;;;9.50;5.00;;;;;;;;5121107;28;10463;-76
2022/04/08 03:06:34;;;;;;;;;4.50;4.50;;;;;;;;5120502;28;11432;-76
2022/04/08 03:08:59;;;;;;;;;6.00;2.00;;;;;;;;5120323;28;12247;-75
2022/04/08 03:11:24;;;;;;;;;6.75;2.00;;;;;;;;5120200;28;12737;-76
2022/04/08 03:13:50;;;;;;;;;2.00;2.00;;;;;;;;5120601;28;8923;-75
2022/04/08 03:16:15;;;;;;;;;3.50;3.50;;;;;;;;5120280;28;8816;-76
2022/04/08 03:18:40;;;;;;;;;2.75;2.75;;;;;;;;5120135;28;11336;-75
2022/04/08 03:21:06;;;;;;;;;5.25;2.75;;;;;;;;5120092;28;11297;-75
2022/04/08 03:23:31;;;;;;;;;4.00;3.00;;;;;;;;5120198;28;8827;-74
2022/04/08 03:25:56;;;;;;;;;2.00;2.00;;;;;;;;5120496;28;11289;-76
2022/04/08 03:28:22;;;;;;;;;6.00;1.75;;;;;;;;5120199;28;8815;-77
2022/04/08 03:30:48;;;;;;;;;3.25;1.75;;;;;;;;5101710;28;13340;-76
2022/04/08 03:33:13;;;;;;;;;1.50;1.50;;;;;;;;5119616;28;8919;-75
2022/04/08 03:35:38;;;;;;;;;5.00;5.00;;;;;;;;5120104;28;12878;-75
2022/04/08 03:38:04;;;;;;;;;4.00;2.50;;;;;;;;5120137;28;11340;-76
2022/04/08 03:40:29;;;;;;;;;5.00;3.00;;;;;;;;5120050;28;11330;-77
2022/04/08 03:42:54;;;;;;;;;4.00;2.25;;;;;;;;5119668;28;11289;-76
2022/04/08 03:45:20;;;;;;;;;2.75;2.00;;;;;;;;5119794;28;11295;-76
2022/04/08 03:47:46;;;;;;;;;1.25;0.00;;;;;;;;5100840;28;13399;-76
2022/04/08 03:50:11;;;;;;;;;4.00;2.25;;;;;;;;5102031;28;10062;-76
2022/04/08 03:52:36;;;;;;;;;1.75;1.75;;;;;;;;5119680;28;12151;-77
2022/04/08 03:55:02;;;;;;;;;1.00;0.00;;;;;;;;5120440;28;10243;-77
2022/04/08 03:57:28;;;;;;;;;1.25;1.25;;;;;;;;5120078;28;10328;-77
2022/04/08 03:59:53;;;;;;;;;5.75;2.00;;;;;;;;5119852;28;10307;-76
2022/04/08 04:02:19;;;;;;;;;2.50;2.50;;;;;;;;5119765;28;11358;-77
2022/04/08 04:04:44;;;;;;;;;5.00;2.00;;;;;;;;5119289;28;11601;-77
2022/04/08 04:07:09;;;;;;;;;5.75;2.00;;;;;;;;5119568;28;11666;-76
2022/04/08 04:09:35;;;;;;;;;5.00;2.75;;;;;;;;5119564;28;8796;-75
2022/04/08 04:12:00;;;;;;;;;6.25;2.50;;;;;;;;5119824;28;9673;-76
2022/04/08 04:14:25;;;;;;;;;3.00;2.00;;;;;;;;5120385;28;11827;-76
2022/04/08 04:16:51;;;;;;;;;5.00;2.50;;;;;;;;5119768;28;12856;-76
2022/04/08 04:19:17;;;;;;;;;2.00;2.00;;;;;;;;5119997;28;11505;-76
2022/04/08 04:21:42;;;;;;;;;2.50;2.50;;;;;;;;5119558;28;11599;-78
2022/04/08 04:24:08;;;;;;;;;1.00;1.00;;;;;;;;5118863;28;11725;-76
2022/04/08 04:26:33;;;;;;;;;1.75;1.00;;;;;;;;5119726;28;11271;-78
2022/04/08 04:28:58;;;;;;;;;2.00;2.00;;;;;;;;5119531;28;8810;-75
2022/04/08 04:31:23;;;;;;;;;8.75;5.00;;;;;;;;5119498;28;10410;-76
2022/04/08 04:33:49;;;;;;;;;2.75;2.00;;;;;;;;5124705;27;10280;-72
2022/04/08 04:36:15;;;;;;;;;2.00;2.00;;;;;;;;5129775;27;8791;-73
2022/04/08 04:38:40;;;;;;;;;6.25;2.00;;;;;;;;5129560;27;8807;-75
2022/04/08 04:41:05;;;;;;;;;2.25;1.75;;;;;;;;5136901;27;11415;-74
2022/04/08 04:43:31;;;;;;;;;4.75;3.00;;;;;;;;5139856;27;12352;-74
2022/04/08 04:45:56;;;;;;;;;2.75;2.00;;;;;;;;5142850;27;12151;-74
2022/04/08 04:48:22;;;;;;;;;4.75;3.50;;;;;;;;5143570;27;8759;-73
2022/04/08 04:50:48;;;;;;;;;1.00;1.00;;;;;;;;5143386;27;11319;-73
2022/04/08 04:53:13;;;;;;;;;2.75;1.00;;;;;;;;5132169;27;11299;-73
2022/04/08 04:55:38;;;;;;;;;3.00;3.00;;;;;;;;5131107;27;8952;-73
2022/04/08 04:58:04;;;;;;;;;3.00;3.00;;;;;;;;5132300;27;10861;-73
2022/04/08 05:00:29;;;;;;;;;2.50;2.50;;;;;;;;5130354;27;8784;-74
2022/04/08 05:02:54;;;;;;;;;2.00;2.00;;;;;;;;5131448;27;12640;-74
2022/04/08 05:05:20;;;;;;;;;2.00;2.00;;;;;;;;5132210;27;8907;-74
2022/04/08 05:07:45;;;;;;;;;5.00;2.00;;;;;;;;5130893;27;8873;-76
2022/04/08 05:10:10;;;;;;;;;5.00;3.00;;;;;;;;5132590;27;8884;-77
2022/04/08 05:12:36;;;;;;;;;7.50;2.00;;;;;;;;5131526;27;8796;-76
2022/04/08 05:15:06;;;;;;;;;6.00;2.50;;;;;;;;5130954;27;11202;-77
2022/04/08 05:17:32;;;;;;;;;4.00;4.00;;;;;;;;5129606;27;11833;-76
2022/04/08 05:19:58;;;;;;;;;3.00;3.00;;;;;;;;5131040;27;11521;-78
2022/04/08 05:22:23;;;;;;;;;6.00;3.00;;;;;;;;5129521;27;8830;-81
2022/04/08 05:24:48;;;;;;;;;4.00;2.50;;;;;;;;5131965;27;9499;-77
2022/04/08 05:27:14;;;;;;;;;4.50;3.00;;;;;;;;5129814;27;11966;-75
2022/04/08 05:29:39;;;;;;;;;6.75;2.50;;;;;;;;5130556;27;10504;-75
2022/04/08 05:32:04;;;;;;;;;3.50;2.50;;;;;;;;5129252;27;11267;-77
2022/04/08 05:34:31;;;;;;;;;5.50;5.50;;;;;;;;5132479;27;10578;-71
2022/04/08 05:36:56;;;;;;;;;8.75;5.00;;;;;;;;5130281;27;9904;-72
2022/04/08 05:39:22;;;;;;;;;7.75;5.25;;;;;;;;5130032;27;11565;-73
2022/04/08 05:41:47;;;;;;;;;6.25;2.75;;;;;;;;5131638;27;11549;-78
2022/04/08 05:44:12;;;;;;;;;7.75;3.00;;;;;;;;5110739;27;10537;-75
2022/04/08 05:46:38;;;;;;;;;6.00;3.00;;;;;;;;5127822;27;11519;-77
2022/04/08 05:49:03;;;;;;;;;5.75;3.00;;;;;;;;5131116;27;8835;-80
2022/04/08 05:51:28;;;;;;;;;3.00;2.50;;;;;;;;5129465;27;9285;-78
2022/04/08 05:53:53;;;;;;;;;3.00;2.00;;;;;;;;5132054;27;12529;-80
2022/04/08 05:56:19;;;;;;;;;5.00;2.75;;;;;;;;5130159;27;8786;-81
2022/04/08 05:58:44;;;;;;;;;6.00;3.50;;;;;;;;5113034;27;11851;-82
2022/04/08 06:01:10;;;;;;;;;8.00;5.00;;;;;;;;5130953;27;12551;-85
2022/04/08 06:03:36;;;;;;;;;7.00;6.50;;;;;;;;5123024;27;12815;-86
2022/04/08 06:06:01;;;;;;;;;10.50;9.00;;;;;;;;5142299;27;11830;-83
2022/04/08 06:08:26;;;;;;;;;5.00;3.50;;;;;;;;5114018;28;23880;-82
2022/04/08 06:10:52;;;;;;;;;6.00;5.00;;;;;;;;5120873;28;21567;-82
2022/04/08 06:13:17;;;;;;;;;12.00;11.00;;;;;;;;5102224;28;13557;-83
2022/04/08 06:15:43;;;;;;;;;14.75;14.00;;;;;;;;5120444;28;23664;-82
2022/04/08 06:18:09;;;;;;;;;12.00;9.50;;;;;;;;5101936;28;12904;-81
2022/04/08 06:20:35;;;;;;;;;8.00;6.75;;;;;;;;5120532;28;22825;-81
2022/04/08 06:23:00;;;;;;;;;15.25;10.00;;;;;;;;5119699;28;21872;-81
2022/04/08 06:25:25;;;;;;;;;7.50;6.50;;;;;;;;5101381;28;22675;-82
2022/04/08 06:27:57;;;;;;;;;21.00;19.50;;;;;;;;5119968;28;22304;-82
2022/04/08 06:30:22;;;;;;;;;24.75;22.50;;;;;;;;5101190;28;26376;-82
2022/04/08 06:32:47;;;;;;;;;37.75;28.50;;;;;;;;5101477;28;13720;-82
2022/04/08 06:35:13;;;;;;;;;22.50;13.75;;;;;;;;5121100;28;10475;-82
2022/04/08 06:37:39;;;;;;;;;72.00;50.67;;;;;;;;5129162;27;14712;-78
2022/04/08 06:40:05;;;;;;;;;6.00;6.00;;;;;;;;5113813;28;15285;-83
2022/04/08 06:42:31;;;;;;;;;4.00;2.50;;;;;;;;5101494;28;23231;-80
2022/04/08 06:44:56;;;;;;;;;36.50;23.75;;;;;;;;5120986;28;11445;-80
2022/04/08 06:47:21;;;;;;;;;6.25;5.00;;;;;;;;5101952;28;25130;-87
2022/04/08 06:49:46;;;;;;;;;55.67;45.00;;;;;;;;5117675;28;23792;-76
2022/04/08 06:52:12;;;;;;;;;36.25;26.00;;;;;;;;5099402;28;22914;-83
2022/04/08 06:54:38;;;;;;;;;72.67;52.33;;;;;;;;5119506;28;12217;-82
2022/04/08 06:57:04;;;;;;;;;24.25;19.25;;;;;;;;5120542;27;13285;-83
2022/04/08 06:59:29;;;;;;;;;105.50;83.00;;;;;;;;5139964;27;12414;-85
2022/04/08 07:01:57;;;;;;;;;21.75;14.25;;;;;;;;5139539;27;23476;-81
2022/04/08 07:04:22;;;;;;;;;92.33;68.00;;;;;;;;5140086;27;23745;-82
2022/04/08 07:06:48;;;;;;;;;93.67;61.67;;;;;;;;5116490;27;13590;-80
2022/04/08 07:09:13;;;;;;;;;91.00;59.00;;;;;;;;5128968;27;11584;-76
2022/04/08 07:11:38;;;;;;;;;8.25;7.00;;;;;;;;5128164;27;12433;-79
2022/04/08 07:14:04;;;;;;;;;62.00;44.00;;;;;;;;5110146;27;25180;-79
2022/04/08 07:16:29;;;;;;;;;98.33;72.00;;;;;;;;5127919;27;22544;-78
2022/04/08 07:18:55;;;;;;;;;188.50;142.25;;;;;;;;5125715;27;12208;-76
2022/04/08 07:21:21;;;;;;;;;17.00;13.00;;;;;;;;5129319;27;24235;-79
2022/04/08 07:23:47;;;;;;;;;15.00;11.75;;;;;;;;5127890;27;24902;-76
2022/04/08 07:26:12;;;;;;;;;3.00;1.25;;;;;;;;5129705;27;11465;-77
2022/04/08 07:28:40;;;;;;;;;2.25;2.25;;;;;;;;5124623;27;22495;-87
2022/04/08 07:31:06;;;;;;;;;2.50;2.00;;;;;;;;5101514;28;12537;-89
2022/04/08 07:33:31;;;;;;;;;3.75;2.00;;;;;;;;5126671;27;11466;-81
2022/04/08 07:35:58;;;;;;;;;5.25;4.00;;;;;;;;5125427;27;8777;-82
2022/04/08 07:38:24;;;;;;;;;6.25;5.50;;;;;;;;5129241;27;9794;-79
2022/04/08 07:40:50;;;;;;;;;5.25;5.25;;;;;;;;5109614;27;13498;-78
2022/04/08 07:43:16;;;;;;;;;10.50;6.00;;;;;;;;5127743;27;12029;-78
2022/04/08 07:45:42;;;;;;;;;6.50;4.50;;;;;;;;5127186;27;21489;-76
2022/04/08 07:48:07;;;;;;;;;6.75;5.00;;;;;;;;5129383;27;21440;-80
2022/04/08 07:50:33;;;;;;;;;3.00;3.00;;;;;;;;5126320;27;10688;-75
2022/04/08 07:52:58;;;;;;;;;6.50;5.00;;;;;;;;5109368;27;12636;-80
2022/04/08 07:55:26;;;;;;;;;2.25;2.25;;;;;;;;5129883;27;10728;-78
2022/04/08 07:57:51;;;;;;;;;6.00;5.00;;;;;;;;5127527;27;11454;-78
2022/04/08 08:00:19;;;;;;;;;2.75;2.75;;;;;;;;5127902;27;12707;-78
2022/04/08 08:02:45;;;;;;;;;2.00;2.00;;;;;;;;5129433;27;11430;-78
2022/04/08 08:05:10;;;;;;;;;1.50;1.50;;;;;;;;5126161;27;11422;-77
2022/04/08 08:07:52;;;;;;;;;3.00;3.00;;;;;;;;5128231;27;11796;-79
2022/04/08 08:10:27;;;;;;;;;2.25;1.00;;;;;;;;5127968;27;11775;-79
2022/04/08 08:12:53;;;;;;;;;2.00;2.00;;;;;;;;5126530;27;11490;-79
2022/04/08 08:15:19;;;;;;;;;2.00;2.00;;;;;;;;5128645;27;11384;-80
2022/04/08 08:17:45;;;;;;;;;2.75;2.75;;;;;;;;5126442;27;8812;-78
2022/04/08 08:20:11;;;;;;;;;2.00;2.00;;;;;;;;5128218;27;11442;-81
2022/04/08 08:22:37;;;;;;;;;2.75;2.00;;;;;;;;5127246;27;11374;-81
2022/04/08 08:25:03;;;;;;;;;8.50;3.50;;;;;;;;5128019;27;11443;-78
2022/04/08 08:27:35;;;;;;;;;1.00;1.00;;;;;;;;5108004;27;13611;-79
2022/04/08 08:30:00;;;;;;;;;2.00;1.00;;;;;;;;5126313;27;11424;-77
2022/04/08 08:32:26;;;;;;;;;3.00;3.00;;;;;;;;5109498;27;11524;-81
2022/04/08 08:34:51;;;;;;;;;2.00;1.00;;;;;;;;5125798;27;8828;-80
2022/04/08 08:37:16;;;;;;;;;3.75;2.75;;;;;;;;5106427;28;10869;-81
2022/04/08 08:39:41;;;;;;;;;3.00;2.00;;;;;;;;5118684;28;11517;-78
2022/04/08 08:42:08;;;;;;;;;2.50;2.50;;;;;;;;5100532;28;10413;-79
2022/04/08 08:44:33;;;;;;;;;2.00;2.00;;;;;;;;5099454;28;13399;-75
2022/04/08 08:47:00;;;;;;;;;4.50;2.75;;;;;;;;5118234;28;11356;-80
2022/04/08 08:49:28;;;;;;;;;3.50;2.25;;;;;;;;5103578;27;14675;-81
2022/04/08 08:51:58;;;;;;;;;2.00;2.00;;;;;;;;5127197;27;11383;-81
2022/04/08 08:54:23;;;;;;;;;3.00;3.00;;;;;;;;5128300;27;11511;-80
2022/04/08 08:56:49;;;;;;;;;3.50;3.50;;;;;;;;5129917;27;11412;-76
2022/04/08 08:59:15;;;;;;;;;4.00;3.00;;;;;;;;5128024;27;8833;-75
2022/04/08 09:01:40;;;;;;;;;6.00;3.00;;;;;;;;5125820;27;11384;-78
2022/04/08 09:04:05;;;;;;;;;3.00;3.00;;;;;;;;5128420;27;8860;-81
2022/04/08 09:06:38;;;;;;;;;4.00;3.25;;;;;;;;5108568;27;8835;-75
2022/04/08 09:09:04;;;;;;;;;4.50;2.50;;;;;;;;5127295;27;11388;-75
2022/04/08 09:11:29;;;;;;;;;4.00;4.00;;;;;;;;5129040;27;11470;-75
2022/04/08 09:14:00;;;;;;;;;4.00;2.00;;;;;;;;5128192;27;10785;-76
2022/04/08 09:16:27;;;;;;;;;3.00;1.00;;;;;;;;5107779;27;10486;-75
2022/04/08 09:18:54;;;;;;;;;2.75;2.50;;;;;;;;5127962;27;11361;-75
2022/04/08 09:21:26;;;;;;;;;3.00;2.00;;;;;;;;5128170;27;12159;-75
2022/04/08 09:23:51;;;;;;;;;2.00;1.00;;;;;;;;5126336;27;11533;-75
2022/04/08 09:26:19;;;;;;;;;1.50;1.00;;;;;;;;5127155;27;11356;-76
2022/04/08 09:28:45;;;;;;;;;1.50;0.25;;;;;;;;5128863;27;9304;-75
2022/04/08 09:31:18;;;;;;;;;2.00;1.00;;;;;;;;5128362;27;11365;-76
2022/04/08 09:33:52;;;;;;;;;0.00;0.00;;;;;;;;5130811;27;11581;-76
2022/04/08 09:36:27;;;;;;;;;2.00;1.75;;;;;;;;5131024;27;11353;-76
2022/04/08 09:38:53;;;;;;;;;3.00;2.00;;;;;;;;5130528;27;11629;-75
2022/04/08 09:41:18;;;;;;;;;4.00;0.00;;;;;;;;5131279;27;12137;-74
2022/04/08 09:43:43;;;;;;;;;2.00;2.00;;;;;;;;5132691;27;8829;-75
2022/04/08 09:46:27;;;;;;;;;3.75;1.00;;;;;;;;5129637;27;8827;-75
2022/04/08 09:48:52;;;;;;;;;4.00;2.00;;;;;;;;5134110;27;10515;-73
2022/04/08 09:51:21;;;;;;;;;2.50;2.00;;;;;;;;5122372;27;12559;-75
2022/04/08 09:54:00;;;;;;;;;10.25;2.00;;;;;;;;5141734;27;9363;-76
2022/04/08 09:56:27;;;;;;;;;2.25;1.25;;;;;;;;5141764;27;16366;-76
2022/04/08 09:59:01;;;;;;;;;1.00;0.75;;;;;;;;5140905;27;21894;-75
2022/04/08 10:01:28;;;;;;;;;2.75;1.00;;;;;;;;5141685;27;11383;-76
2022/04/08 10:03:53;;;;;;;;;0.00;0.00;;;;;;;;5141113;27;12309;-76
2022/04/08 10:06:19;;;;;;;;;1.00;0.50;;;;;;;;5141514;27;11347;-75
2022/04/08 10:08:46;;;;;;;;;3.75;1.25;;;;;;;;5141014;27;11296;-74
2022/04/08 10:11:21;;;;;;;;;3.00;1.00;;;;;;;;5142326;27;11367;-73
2022/04/08 10:14:10;;;;;;;;;3.00;1.75;;;;;;;;5141716;27;11313;-75
2022/04/08 10:16:38;;;;;;;;;2.50;2.00;;;;;;;;5142327;27;11370;-75
2022/04/08 10:19:06;;;;;;;;;2.00;2.00;;;;;;;;5118121;27;13465;-76
2022/04/08 10:21:35;;;;;;;;;2.75;2.75;;;;;;;;5131715;27;11354;-77
2022/04/08 10:24:06;;;;;;;;;3.00;3.00;;;;;;;;5130572;27;11383;-76
2022/04/08 10:26:32;;;;;;;;;2.00;1.00;;;;;;;;5131802;27;11639;-76
2022/04/08 10:28:57;;;;;;;;;1.00;1.00;;;;;;;;5130591;27;11412;-77
2022/04/08 10:31:23;;;;;;;;;2.00;2.00;;;;;;;;5131645;27;8835;-78
2022/04/08 10:33:59;;;;;;;;;1.00;1.00;;;;;;;;5125634;27;8811;-78
2022/04/08 10:36:31;;;;;;;;;1.75;1.00;;;;;;;;5127091;27;11082;-72
2022/04/08 10:39:08;;;;;;;;;1.50;1.50;;;;;;;;5124373;27;12048;-73
2022/04/08 10:41:43;;;;;;;;;2.00;2.00;;;;;;;;5119789;27;11331;-77
2022/04/08 10:44:08;;;;;;;;;2.25;0.00;;;;;;;;5125101;27;11432;-78
2022/04/08 10:46:34;;;;;;;;;1.00;1.00;;;;;;;;5129058;27;11007;-77
2022/04/08 10:49:00;;;;;;;;;1.00;1.00;;;;;;;;5128288;27;11734;-78
2022/04/08 10:51:29;;;;;;;;;2.00;2.00;;;;;;;;5108334;27;11024;-76
2022/04/08 10:54:02;;;;;;;;;2.00;1.00;;;;;;;;5136603;27;8779;-76
2022/04/08 10:56:34;;;;;;;;;5.25;2.00;;;;;;;;5134162;27;11285;-75
2022/04/08 10:58:59;;;;;;;;;2.00;1.00;;;;;;;;5138957;27;12092;-76
2022/04/08 11:01:25;;;;;;;;;1.00;1.00;;;;;;;;5139439;27;11435;-76
2022/04/08 11:03:53;;;;;;;;;1.00;1.00;;;;;;;;5122639;27;9522;-80
2022/04/08 11:06:19;;;;;;;;;0.25;0.25;;;;;;;;5118888;28;8764;-79
2022/04/08 11:08:47;;;;;;;;;4.00;1.25;;;;;;;;5119042;28;11791;-77
2022/04/08 11:11:13;;;;;;;;;2.25;1.00;;;;;;;;5120217;28;10593;-78
2022/04/08 11:13:44;;;;;;;;;2.75;2.00;;;;;;;;5121723;28;11488;-84
2022/04/08 11:16:09;;;;;;;;;2.00;2.00;;;;;;;;5133451;27;9640;-86
2022/04/08 11:18:35;;;;;;;;;3.25;2.25;;;;;;;;5122737;27;11387;-85
2022/04/08 11:21:00;;;;;;;;;4.00;2.25;;;;;;;;5140764;27;11452;-83
2022/04/08 11:23:26;;;;;;;;;5.00;4.25;;;;;;;;5140083;27;8998;-83
2022/04/08 11:25:52;;;;;;;;;2.50;2.00;;;;;;;;5139802;27;9006;-81
2022/04/08 11:28:18;;;;;;;;;3.00;2.00;;;;;;;;5140177;27;11618;-82
2022/04/08 11:30:43;;;;;;;;;2.50;1.25;;;;;;;;5140858;27;8975;-81
2022/04/08 11:36:05;;;;;;;;;2.25;2.00;;;;;;;;5035873;28;11766;-75
2022/04/08 11:38:31;;;;;;;;;6.25;2.25;;;;;;;;5036652;28;11408;-75
2022/04/08 11:41:06;;;;;;;;;3.50;3.00;;;;;;;;5035308;28;11739;-75
2022/04/08 11:43:32;;;;;;;;;4.00;2.00;;;;;;;;5035776;28;11618;-75
2022/04/08 11:45:57;;;;;;;;;3.00;3.00;;;;;;;;5035561;28;11324;-74
2022/04/08 11:48:25;;;;;;;;;3.00;2.75;;;;;;;;5035400;28;8825;-75
2022/04/08 11:50:51;;;;;;;;;3.00;3.00;;;;;;;;5036444;28;8934;-75
2022/04/08 11:53:20;;;;;;;;;6.00;5.00;;;;;;;;5018347;28;11522;-75
2022/04/08 11:56:11;;;;;;;;;3.00;3.00;;;;;;;;5036080;28;8771;-76
2022/04/08 11:58:37;;;;;;;;;3.00;3.00;;;;;;;;5015749;28;11944;-76
2022/04/08 12:01:03;;;;;;;;;7.50;4.75;;;;;;;;5025463;28;11442;-78
2022/04/08 12:03:36;;;;;;;;;1.50;1.50;;;;;;;;5016705;28;13484;-77
2022/04/08 12:06:02;;;;;;;;;2.25;2.25;;;;;;;;5024226;28;12547;-78
2022/04/08 12:08:28;;;;;;;;;4.00;2.25;;;;;;;;5022969;28;11570;-78
2022/04/08 12:10:54;;;;;;;;;6.25;4.00;;;;;;;;5025189;28;8824;-82
2022/04/08 12:13:21;;;;;;;;;1.00;1.00;;;;;;;;5065560;27;13538;-83
2022/04/08 12:15:48;;;;;;;;;2.00;2.00;;;;;;;;5129228;27;10976;-83
2022/04/08 12:18:24;;;;;;;;;5.25;2.00;;;;;;;;5127126;27;11181;-89
2022/04/08 12:20:56;;;;;;;;;6.00;3.25;;;;;;;;5110728;27;11175;-85
2022/04/08 12:23:29;;;;;;;;;10.50;7.25;;;;;;;;5108963;27;13383;-83
2022/04/08 12:25:55;;;;;;;;;3.50;1.75;;;;;;;;5126955;27;23081;-83
2022/04/08 12:28:28;;;;;;;;;2.75;1.75;;;;;;;;5108169;27;24253;-84
2022/04/08 12:30:54;;;;;;;;;1.50;1.00;;;;;;;;5125249;27;11233;-81
2022/04/08 12:33:19;;;;;;;;;4.00;2.00;;;;;;;;5119799;27;13403;-81
2022/04/08 12:35:45;;;;;;;;;1.00;1.00;;;;;;;;5139377;27;10512;-84
2022/04/08 12:38:10;;;;;;;;;2.00;1.00;;;;;;;;5139921;27;8821;-82
2022/04/08 12:40:35;;;;;;;;;4.00;1.00;;;;;;;;5139604;27;8812;-80
2022/04/08 12:43:01;;;;;;;;;1.50;1.00;;;;;;;;5120941;27;9309;-82
2022/04/08 12:45:27;;;;;;;;;2.25;1.00;;;;;;;;5121285;27;9104;-80
2022/04/08 12:47:53;;;;;;;;;2.75;1.00;;;;;;;;5139369;27;9369;-85
2022/04/08 12:50:18;;;;;;;;;3.75;2.00;;;;;;;;5139217;27;10681;-90
2022/04/08 12:52:43;;;;;;;;;2.75;1.00;;;;;;;;5139430;27;8887;-86
2022/04/08 12:55:08;;;;;;;;;1.00;1.00;;;;;;;;5120610;27;9147;-87
2022/04/08 12:57:34;;;;;;;;;3.50;2.00;;;;;;;;5118636;28;9057;-86
2022/04/08 13:00:00;;;;;;;;;1.25;1.25;;;;;;;;5118533;28;10479;-84
2022/04/08 13:02:29;;;;;;;;;1.25;1.00;;;;;;;;5118617;28;11292;-84
2022/04/08 13:04:54;;;;;;;;;1.00;1.00;;;;;;;;5118708;27;11365;-85
2022/04/08 13:07:19;;;;;;;;;2.00;2.00;;;;;;;;5121830;28;10765;-83
2022/04/08 13:09:45;;;;;;;;;4.50;2.00;;;;;;;;5122401;28;8807;-81
2022/04/08 13:12:10;;;;;;;;;2.25;1.00;;;;;;;;5103390;28;11408;-83
2022/04/08 13:14:36;;;;;;;;;0.75;0.75;;;;;;;;5121587;28;10395;-80
2022/04/08 13:17:01;;;;;;;;;1.00;1.00;;;;;;;;5121795;28;12425;-82
2022/04/08 13:19:27;;;;;;;;;1.50;0.00;;;;;;;;5102781;28;13742;-82
2022/04/08 13:21:52;;;;;;;;;2.25;1.00;;;;;;;;5121616;28;9749;-82
2022/04/08 13:41:37;;;;;;;;;1.00;1.00;;;;;;;;5102179;27;1633675;-76
2022/04/08 13:44:03;;;;;;;;;1.00;1.00;;;;;;;;5137103;27;23517;-78
2022/04/08 13:46:28;;;;;;;;;1.25;0.50;;;;;;;;5157519;27;10595;-84
2022/04/08 13:48:56;;;;;;;;;1.75;0.25;;;;;;;;5136759;27;11219;-86
2022/04/08 13:51:22;;;;;;;;;4.50;2.00;;;;;;;;5138497;27;8929;-81
2022/04/08 13:53:48;;;;;;;;;1.50;1.25;;;;;;;;5138267;27;11913;-79
2022/04/08 13:56:16;;;;;;;;;1.25;1.25;;;;;;;;5138657;27;14712;-86
2022/04/08 13:58:41;;;;;;;;;2.25;2.25;;;;;;;;5138742;27;9052;-77
2022/04/08 14:01:07;;;;;;;;;1.00;1.00;;;;;;;;5138469;27;11545;-83
2022/04/08 14:03:33;;;;;;;;;1.00;1.00;;;;;;;;5156934;27;11294;-81
2022/04/08 14:05:58;;;;;;;;;3.25;3.25;;;;;;;;5138302;27;8851;-83
2022/04/08 14:08:24;;;;;;;;;2.75;2.50;;;;;;;;5137991;27;13509;-88
2022/04/08 14:10:49;;;;;;;;;1.75;1.75;;;;;;;;5137588;27;13316;-81
2022/04/08 14:13:14;;;;;;;;;2.75;2.00;;;;;;;;5137855;27;13368;-84
2022/04/08 14:15:40;;;;;;;;;3.00;3.00;;;;;;;;5137413;27;11338;-84
2022/04/08 14:18:05;;;;;;;;;3.75;2.75;;;;;;;;5157464;27;10708;-86
2022/04/08 14:20:31;;;;;;;;;3.00;1.75;;;;;;;;5138042;27;12610;-81
2022/04/08 14:22:56;;;;;;;;;3.00;2.00;;;;;;;;5156876;27;9732;-81
2022/04/08 14:25:22;;;;;;;;;4.00;3.00;;;;;;;;5156252;27;10584;-84
2022/04/08 14:27:47;;;;;;;;;2.75;1.75;;;;;;;;5137800;27;8786;-85
2022/04/08 14:30:13;;;;;;;;;4.00;3.25;;;;;;;;5156807;27;12071;-82
2022/04/08 14:32:38;;;;;;;;;3.75;2.00;;;;;;;;5137301;27;12396;-83
2022/04/08 14:35:04;;;;;;;;;4.75;2.50;;;;;;;;5157191;27;11934;-82
2022/04/08 14:37:30;;;;;;;;;1.75;1.75;;;;;;;;5156545;27;11582;-82
2022/04/08 14:39:56;;;;;;;;;2.00;2.00;;;;;;;;5136722;27;13695;-82
2022/04/08 14:42:21;;;;;;;;;3.25;3.00;;;;;;;;5156535;27;11624;-83
2022/04/08 14:44:46;;;;;;;;;4.25;2.25;;;;;;;;5156468;27;10271;-84
2022/04/08 14:47:12;;;;;;;;;5.75;5.75;;;;;;;;5156300;27;11975;-81
2022/04/08 14:49:37;;;;;;;;;6.50;6.50;;;;;;;;5136375;27;10469;-79
2022/04/08 14:52:02;;;;;;;;;4.00;4.00;;;;;;;;5147665;27;11396;-78
2022/04/08 14:54:28;;;;;;;;;3.25;3.00;;;;;;;;5123249;27;13402;-81
2022/04/08 14:56:53;;;;;;;;;5.75;3.00;;;;;;;;5141921;27;10266;-81
2022/04/08 14:59:19;;;;;;;;;6.00;3.50;;;;;;;;5123010;27;10615;-74